sensor_id;sensor_type;location;lat;lon;timestamp;P1;durP1;ratioP1;P2;durP2;ratioP2
51925;SDS011;37952;51.938;15.480;2023-05-10T00:00:44;3.30;;;3.10;;
51925;SDS011;37952;51.938;15.480;2023-05-10T00:03:46;3.30;;;3.10;;
51925;SDS011;37952;51.938;15.480;2023-05-10T00:06:49;3.60;;;3.10;;
51925;SDS011;37952;51.938;15.480;2023-05-10T00:09:52;3.10;;;2.90;;
51925;SDS011;37952;51.938;15.480;2023-05-10T00:12:55;2.70;;;2.50;;
51925;SDS011;37952;51.938;15.480;2023-05-10T00:15:57;6.80;;;3.30;;
51925;SDS011;37952;51.938;15.480;2023-05-10T00:19:00;6.10;;;2.90;;
51925;SDS011;37952;51.938;15.480;2023-05-10T00:22:03;5.10;;;3.40;;
51925;SDS011;37952;51.938;15.480;2023-05-10T00:25:05;3.70;;;3.40;;
51925;SDS011;37952;51.938;15.480;2023-05-10T00:28:09;3.90;;;3.50;;
51925;SDS011;37952;51.938;15.480;2023-05-10T00:31:11;4.80;;;3.40;;
51925;SDS011;37952;51.938;15.480;2023-05-10T00:34:14;6.20;;;2.80;;
51925;SDS011;37952;51.938;15.480;2023-05-10T00:37:17;3.20;;;2.70;;
51925;SDS011;37952;51.938;15.480;2023-05-10T00:40:20;3.10;;;2.90;;
51925;SDS011;37952;51.938;15.480;2023-05-10T00:43:23;3.60;;;3.30;;
51925;SDS011;37952;51.938;15.480;2023-05-10T00:46:26;3.40;;;3.20;;
51925;SDS011;37952;51.938;15.480;2023-05-10T00:49:29;3.10;;;2.90;;
51925;SDS011;37952;51.938;15.480;2023-05-10T00:52:32;3.70;;;3.20;;
51925;SDS011;37952;51.938;15.480;2023-05-10T00:55:35;4.70;;;3.10;;
51925;SDS011;37952;51.938;15.480;2023-05-10T00:58:39;3.70;;;3.50;;
51925;SDS011;37952;51.938;15.480;2023-05-10T01:01:42;5.50;;;3.20;;
51925;SDS011;37952;51.938;15.480;2023-05-10T01:04:48;3.50;;;2.80;;
51925;SDS011;37952;51.938;15.480;2023-05-10T01:07:51;4.30;;;3.40;;
51925;SDS011;37952;51.938;15.480;2023-05-10T01:10:55;3.80;;;3.40;;
51925;SDS011;37952;51.938;15.480;2023-05-10T01:13:57;4.40;;;2.90;;
51925;SDS011;37952;51.938;15.480;2023-05-10T01:17:01;3.60;;;2.90;;
51925;SDS011;37952;51.938;15.480;2023-05-10T01:20:06;3.40;;;3.10;;
51925;SDS011;37952;51.938;15.480;2023-05-10T01:26:26;3.60;;;3.20;;
51925;SDS011;37952;51.938;15.480;2023-05-10T01:37:32;3.30;;;3.00;;
51925;SDS011;37952;51.938;15.480;2023-05-10T01:41:12;6.70;;;3.00;;
51925;SDS011;37952;51.938;15.480;2023-05-10T01:44:26;3.20;;;2.90;;
51925;SDS011;37952;51.938;15.480;2023-05-10T01:47:40;8.20;;;3.70;;
51925;SDS011;37952;51.938;15.480;2023-05-10T01:50:45;3.40;;;3.00;;
51925;SDS011;37952;51.938;15.480;2023-05-10T01:58:06;4.00;;;3.60;;
51925;SDS011;37952;51.938;15.480;2023-05-10T02:01:12;3.10;;;2.90;;
51925;SDS011;37952;51.938;15.480;2023-05-10T02:04:16;3.60;;;3.30;;
51925;SDS011;37952;51.938;15.480;2023-05-10T02:07:21;3.50;;;2.70;;
51925;SDS011;37952;51.938;15.480;2023-05-10T02:10:27;4.00;;;3.60;;
51925;SDS011;37952;51.938;15.480;2023-05-10T02:13:31;4.30;;;3.40;;
51925;SDS011;37952;51.938;15.480;2023-05-10T02:16:36;3.90;;;3.60;;
51925;SDS011;37952;51.938;15.480;2023-05-10T02:19:41;3.90;;;3.70;;
51925;SDS011;37952;51.938;15.480;2023-05-10T02:22:45;4.40;;;4.00;;
51925;SDS011;37952;51.938;15.480;2023-05-10T02:29:08;3.60;;;3.30;;
51925;SDS011;37952;51.938;15.480;2023-05-10T02:32:12;7.00;;;3.40;;
51925;SDS011;37952;51.938;15.480;2023-05-10T02:35:16;3.50;;;3.20;;
51925;SDS011;37952;51.938;15.480;2023-05-10T02:38:20;4.10;;;3.70;;
51925;SDS011;37952;51.938;15.480;2023-05-10T02:41:26;9.80;;;3.70;;
51925;SDS011;37952;51.938;15.480;2023-05-10T02:44:30;4.00;;;3.40;;
51925;SDS011;37952;51.938;15.480;2023-05-10T02:47:34;3.40;;;3.20;;
51925;SDS011;37952;51.938;15.480;2023-05-10T02:50:37;4.30;;;3.90;;
51925;SDS011;37952;51.938;15.480;2023-05-10T02:53:46;4.10;;;3.90;;
51925;SDS011;37952;51.938;15.480;2023-05-10T02:56:53;3.50;;;3.30;;
51925;SDS011;37952;51.938;15.480;2023-05-10T03:00:01;4.00;;;3.60;;
51925;SDS011;37952;51.938;15.480;2023-05-10T03:03:05;4.30;;;4.00;;
51925;SDS011;37952;51.938;15.480;2023-05-10T03:06:08;4.90;;;4.50;;
51925;SDS011;37952;51.938;15.480;2023-05-10T03:09:10;4.10;;;3.30;;
51925;SDS011;37952;51.938;15.480;2023-05-10T03:12:20;3.70;;;3.50;;
51925;SDS011;37952;51.938;15.480;2023-05-10T03:15:31;4.40;;;3.70;;
51925;SDS011;37952;51.938;15.480;2023-05-10T03:22:10;6.40;;;3.90;;
51925;SDS011;37952;51.938;15.480;2023-05-10T03:25:15;3.80;;;3.60;;
51925;SDS011;37952;51.938;15.480;2023-05-10T03:28:20;5.10;;;4.30;;
51925;SDS011;37952;51.938;15.480;2023-05-10T03:31:23;4.30;;;3.90;;
51925;SDS011;37952;51.938;15.480;2023-05-10T03:34:26;3.80;;;3.60;;
51925;SDS011;37952;51.938;15.480;2023-05-10T03:37:29;5.60;;;4.20;;
51925;SDS011;37952;51.938;15.480;2023-05-10T03:40:31;3.60;;;3.40;;
51925;SDS011;37952;51.938;15.480;2023-05-10T03:46:47;4.10;;;3.70;;
51925;SDS011;37952;51.938;15.480;2023-05-10T03:49:50;4.00;;;3.60;;
51925;SDS011;37952;51.938;15.480;2023-05-10T03:52:53;4.20;;;3.90;;
51925;SDS011;37952;51.938;15.480;2023-05-10T03:55:56;4.10;;;3.70;;
51925;SDS011;37952;51.938;15.480;2023-05-10T03:58:59;4.00;;;3.60;;
51925;SDS011;37952;51.938;15.480;2023-05-10T04:02:01;5.00;;;3.80;;
51925;SDS011;37952;51.938;15.480;2023-05-10T04:05:05;4.30;;;4.10;;
51925;SDS011;37952;51.938;15.480;2023-05-10T04:08:08;4.00;;;3.70;;
51925;SDS011;37952;51.938;15.480;2023-05-10T04:11:11;4.20;;;4.00;;
51925;SDS011;37952;51.938;15.480;2023-05-10T04:14:15;4.50;;;4.10;;
51925;SDS011;37952;51.938;15.480;2023-05-10T04:17:17;4.70;;;4.30;;
51925;SDS011;37952;51.938;15.480;2023-05-10T04:20:20;5.20;;;4.10;;
51925;SDS011;37952;51.938;15.480;2023-05-10T04:23:22;4.30;;;4.00;;
51925;SDS011;37952;51.938;15.480;2023-05-10T04:26:25;4.90;;;3.50;;
51925;SDS011;37952;51.938;15.480;2023-05-10T04:29:28;5.10;;;3.80;;
51925;SDS011;37952;51.938;15.480;2023-05-10T04:32:30;5.80;;;4.30;;
51925;SDS011;37952;51.938;15.480;2023-05-10T04:35:34;4.40;;;4.10;;
51925;SDS011;37952;51.938;15.480;2023-05-10T04:38:37;4.30;;;4.00;;
51925;SDS011;37952;51.938;15.480;2023-05-10T04:41:40;6.90;;;4.40;;
51925;SDS011;37952;51.938;15.480;2023-05-10T04:44:42;4.90;;;4.50;;
51925;SDS011;37952;51.938;15.480;2023-05-10T04:47:56;6.40;;;4.30;;
51925;SDS011;37952;51.938;15.480;2023-05-10T04:50:58;4.60;;;3.70;;
51925;SDS011;37952;51.938;15.480;2023-05-10T04:54:02;4.10;;;3.80;;
51925;SDS011;37952;51.938;15.480;2023-05-10T04:57:08;4.20;;;3.80;;
51925;SDS011;37952;51.938;15.480;2023-05-10T05:00:10;4.60;;;4.30;;
51925;SDS011;37952;51.938;15.480;2023-05-10T05:03:13;5.20;;;3.80;;
51925;SDS011;37952;51.938;15.480;2023-05-10T05:06:18;5.30;;;3.70;;
51925;SDS011;37952;51.938;15.480;2023-05-10T05:09:22;8.20;;;3.60;;
51925;SDS011;37952;51.938;15.480;2023-05-10T05:12:24;4.40;;;3.10;;
51925;SDS011;37952;51.938;15.480;2023-05-10T05:15:27;4.20;;;3.80;;
51925;SDS011;37952;51.938;15.480;2023-05-10T05:18:30;4.30;;;4.00;;
51925;SDS011;37952;51.938;15.480;2023-05-10T05:21:32;4.70;;;3.60;;
51925;SDS011;37952;51.938;15.480;2023-05-10T05:24:35;3.70;;;3.40;;
51925;SDS011;37952;51.938;15.480;2023-05-10T05:27:40;3.50;;;3.20;;
51925;SDS011;37952;51.938;15.480;2023-05-10T05:30:43;6.40;;;3.90;;
51925;SDS011;37952;51.938;15.480;2023-05-10T05:33:46;7.30;;;4.00;;
51925;SDS011;37952;51.938;15.480;2023-05-10T05:36:48;4.80;;;3.40;;
51925;SDS011;37952;51.938;15.480;2023-05-10T05:39:51;4.00;;;3.80;;
51925;SDS011;37952;51.938;15.480;2023-05-10T05:42:54;4.50;;;3.70;;
51925;SDS011;37952;51.938;15.480;2023-05-10T05:45:57;3.30;;;3.00;;
51925;SDS011;37952;51.938;15.480;2023-05-10T05:49:00;4.80;;;3.40;;
51925;SDS011;37952;51.938;15.480;2023-05-10T05:52:03;3.50;;;3.30;;
51925;SDS011;37952;51.938;15.480;2023-05-10T05:55:07;3.90;;;3.50;;
51925;SDS011;37952;51.938;15.480;2023-05-10T05:58:09;5.80;;;3.00;;
51925;SDS011;37952;51.938;15.480;2023-05-10T06:01:12;3.30;;;3.00;;
51925;SDS011;37952;51.938;15.480;2023-05-10T06:04:15;4.80;;;3.10;;
51925;SDS011;37952;51.938;15.480;2023-05-10T06:07:18;7.90;;;3.70;;
51925;SDS011;37952;51.938;15.480;2023-05-10T06:10:21;5.30;;;3.50;;
51925;SDS011;37952;51.938;15.480;2023-05-10T06:13:25;3.80;;;3.50;;
51925;SDS011;37952;51.938;15.480;2023-05-10T06:16:31;3.60;;;3.40;;
51925;SDS011;37952;51.938;15.480;2023-05-10T06:19:34;4.30;;;2.90;;
51925;SDS011;37952;51.938;15.480;2023-05-10T06:22:36;3.50;;;3.20;;
51925;SDS011;37952;51.938;15.480;2023-05-10T06:25:39;2.90;;;2.70;;
51925;SDS011;37952;51.938;15.480;2023-05-10T06:28:42;4.00;;;3.20;;
51925;SDS011;37952;51.938;15.480;2023-05-10T06:31:45;3.80;;;2.90;;
51925;SDS011;37952;51.938;15.480;2023-05-10T06:34:48;2.90;;;2.80;;
51925;SDS011;37952;51.938;15.480;2023-05-10T06:37:50;4.80;;;3.30;;
51925;SDS011;37952;51.938;15.480;2023-05-10T06:40:53;5.20;;;2.90;;
51925;SDS011;37952;51.938;15.480;2023-05-10T06:43:56;2.70;;;2.60;;
51925;SDS011;37952;51.938;15.480;2023-05-10T06:46:59;3.30;;;3.10;;
51925;SDS011;37952;51.938;15.480;2023-05-10T06:50:05;3.00;;;2.60;;
51925;SDS011;37952;51.938;15.480;2023-05-10T06:53:08;5.80;;;2.90;;
51925;SDS011;37952;51.938;15.480;2023-05-10T06:56:11;4.90;;;3.10;;
51925;SDS011;37952;51.938;15.480;2023-05-10T06:59:13;4.10;;;2.70;;
51925;SDS011;37952;51.938;15.480;2023-05-10T07:02:18;6.40;;;2.70;;
51925;SDS011;37952;51.938;15.480;2023-05-10T07:05:21;2.80;;;2.60;;
51925;SDS011;37952;51.938;15.480;2023-05-10T07:08:24;6.90;;;3.10;;
51925;SDS011;37952;51.938;15.480;2023-05-10T07:11:26;2.80;;;2.60;;
51925;SDS011;37952;51.938;15.480;2023-05-10T07:14:29;2.80;;;2.60;;
51925;SDS011;37952;51.938;15.480;2023-05-10T07:17:32;6.10;;;2.90;;
51925;SDS011;37952;51.938;15.480;2023-05-10T07:20:35;3.10;;;2.80;;
51925;SDS011;37952;51.938;15.480;2023-05-10T07:23:38;3.50;;;3.00;;
51925;SDS011;37952;51.938;15.480;2023-05-10T07:26:40;2.80;;;2.60;;
51925;SDS011;37952;51.938;15.480;2023-05-10T07:29:43;2.90;;;2.70;;
51925;SDS011;37952;51.938;15.480;2023-05-10T07:32:46;2.70;;;2.50;;
51925;SDS011;37952;51.938;15.480;2023-05-10T07:35:49;3.10;;;2.80;;
51925;SDS011;37952;51.938;15.480;2023-05-10T07:38:52;3.00;;;2.80;;
51925;SDS011;37952;51.938;15.480;2023-05-10T07:41:55;12.10;;;2.90;;
51925;SDS011;37952;51.938;15.480;2023-05-10T07:44:58;3.00;;;2.70;;
51925;SDS011;37952;51.938;15.480;2023-05-10T07:48:00;4.50;;;2.60;;
51925;SDS011;37952;51.938;15.480;2023-05-10T07:51:04;3.40;;;2.70;;
51925;SDS011;37952;51.938;15.480;2023-05-10T07:54:18;4.30;;;2.80;;
51925;SDS011;37952;51.938;15.480;2023-05-10T07:57:27;6.60;;;2.70;;
51925;SDS011;37952;51.938;15.480;2023-05-10T08:00:30;2.40;;;2.30;;
51925;SDS011;37952;51.938;15.480;2023-05-10T08:03:32;3.00;;;2.40;;
51925;SDS011;37952;51.938;15.480;2023-05-10T08:06:40;3.10;;;2.60;;
51925;SDS011;37952;51.938;15.480;2023-05-10T08:09:43;6.00;;;2.60;;
51925;SDS011;37952;51.938;15.480;2023-05-10T08:12:45;2.30;;;2.20;;
51925;SDS011;37952;51.938;15.480;2023-05-10T08:15:48;4.30;;;2.50;;
51925;SDS011;37952;51.938;15.480;2023-05-10T08:18:51;2.60;;;2.10;;
51925;SDS011;37952;51.938;15.480;2023-05-10T08:21:54;3.80;;;2.30;;
51925;SDS011;37952;51.938;15.480;2023-05-10T08:24:57;2.60;;;2.10;;
51925;SDS011;37952;51.938;15.480;2023-05-10T08:28:00;2.60;;;2.50;;
51925;SDS011;37952;51.938;15.480;2023-05-10T08:31:03;2.00;;;1.90;;
51925;SDS011;37952;51.938;15.480;2023-05-10T08:34:07;9.20;;;2.10;;
51925;SDS011;37952;51.938;15.480;2023-05-10T08:37:10;2.80;;;2.20;;
51925;SDS011;37952;51.938;15.480;2023-05-10T08:40:16;2.80;;;2.60;;
51925;SDS011;37952;51.938;15.480;2023-05-10T08:43:21;4.50;;;2.10;;
51925;SDS011;37952;51.938;15.480;2023-05-10T08:46:28;2.50;;;2.20;;
51925;SDS011;37952;51.938;15.480;2023-05-10T08:49:33;2.40;;;2.20;;
51925;SDS011;37952;51.938;15.480;2023-05-10T08:52:37;1.90;;;1.80;;
51925;SDS011;37952;51.938;15.480;2023-05-10T08:55:42;3.50;;;2.50;;
51925;SDS011;37952;51.938;15.480;2023-05-10T08:58:45;2.20;;;2.00;;
51925;SDS011;37952;51.938;15.480;2023-05-10T09:01:48;2.90;;;2.50;;
51925;SDS011;37952;51.938;15.480;2023-05-10T09:04:52;2.10;;;1.80;;
51925;SDS011;37952;51.938;15.480;2023-05-10T09:07:55;2.50;;;2.40;;
51925;SDS011;37952;51.938;15.480;2023-05-10T09:10:58;2.80;;;2.10;;
51925;SDS011;37952;51.938;15.480;2023-05-10T09:14:03;2.50;;;2.10;;
51925;SDS011;37952;51.938;15.480;2023-05-10T09:17:06;5.00;;;1.70;;
51925;SDS011;37952;51.938;15.480;2023-05-10T09:20:09;4.90;;;2.10;;
51925;SDS011;37952;51.938;15.480;2023-05-10T09:23:12;1.90;;;1.80;;
51925;SDS011;37952;51.938;15.480;2023-05-10T09:26:15;3.30;;;2.10;;
51925;SDS011;37952;51.938;15.480;2023-05-10T09:29:18;1.80;;;1.70;;
51925;SDS011;37952;51.938;15.480;2023-05-10T09:32:21;3.70;;;2.10;;
51925;SDS011;37952;51.938;15.480;2023-05-10T09:35:25;3.40;;;1.60;;
51925;SDS011;37952;51.938;15.480;2023-05-10T09:38:35;1.90;;;1.80;;
51925;SDS011;37952;51.938;15.480;2023-05-10T09:41:50;1.70;;;1.60;;
51925;SDS011;37952;51.938;15.480;2023-05-10T09:44:53;1.80;;;1.70;;
51925;SDS011;37952;51.938;15.480;2023-05-10T09:47:56;3.70;;;1.80;;
51925;SDS011;37952;51.938;15.480;2023-05-10T09:51:00;1.90;;;1.80;;
51925;SDS011;37952;51.938;15.480;2023-05-10T09:54:08;1.90;;;1.70;;
51925;SDS011;37952;51.938;15.480;2023-05-10T09:57:22;1.90;;;1.80;;
51925;SDS011;37952;51.938;15.480;2023-05-10T10:00:26;2.30;;;1.90;;
51925;SDS011;37952;51.938;15.480;2023-05-10T10:03:29;3.50;;;1.80;;
51925;SDS011;37952;51.938;15.480;2023-05-10T10:06:39;3.30;;;1.80;;
51925;SDS011;37952;51.938;15.480;2023-05-10T10:09:42;1.90;;;1.80;;
51925;SDS011;37952;51.938;15.480;2023-05-10T10:12:45;1.60;;;1.50;;
51925;SDS011;37952;51.938;15.480;2023-05-10T10:15:47;6.10;;;1.60;;
51925;SDS011;37952;51.938;15.480;2023-05-10T10:18:53;2.10;;;2.00;;
51925;SDS011;37952;51.938;15.480;2023-05-10T10:21:56;1.70;;;1.60;;
51925;SDS011;37952;51.938;15.480;2023-05-10T10:24:59;1.80;;;1.50;;
51925;SDS011;37952;51.938;15.480;2023-05-10T10:28:13;1.60;;;1.50;;
51925;SDS011;37952;51.938;15.480;2023-05-10T10:31:34;2.50;;;1.70;;
51925;SDS011;37952;51.938;15.480;2023-05-10T10:34:41;3.50;;;1.50;;
51925;SDS011;37952;51.938;15.480;2023-05-10T10:37:44;1.90;;;1.80;;
51925;SDS011;37952;51.938;15.480;2023-05-10T10:40:56;1.40;;;1.30;;
51925;SDS011;37952;51.938;15.480;2023-05-10T10:47:28;2.40;;;1.80;;
51925;SDS011;37952;51.938;15.480;2023-05-10T10:50:43;2.90;;;2.20;;
51925;SDS011;37952;51.938;15.480;2023-05-10T10:53:47;2.00;;;1.80;;
51925;SDS011;37952;51.938;15.480;2023-05-10T11:00:20;1.60;;;1.50;;
51925;SDS011;37952;51.938;15.480;2023-05-10T11:03:23;2.40;;;1.60;;
51925;SDS011;37952;51.938;15.480;2023-05-10T11:06:33;2.00;;;1.90;;
51925;SDS011;37952;51.938;15.480;2023-05-10T11:09:40;2.50;;;1.70;;
51925;SDS011;37952;51.938;15.480;2023-05-10T11:13:00;1.60;;;1.50;;
51925;SDS011;37952;51.938;15.480;2023-05-10T11:16:10;3.30;;;1.50;;
51925;SDS011;37952;51.938;15.480;2023-05-10T11:19:14;1.50;;;1.40;;
51925;SDS011;37952;51.938;15.480;2023-05-10T11:22:18;4.20;;;1.70;;
51925;SDS011;37952;51.938;15.480;2023-05-10T11:25:26;1.50;;;1.30;;
51925;SDS011;37952;51.938;15.480;2023-05-10T11:28:29;3.40;;;1.60;;
51925;SDS011;37952;51.938;15.480;2023-05-10T11:31:32;4.90;;;1.60;;
51925;SDS011;37952;51.938;15.480;2023-05-10T11:34:35;1.20;;;1.10;;
51925;SDS011;37952;51.938;15.480;2023-05-10T11:37:38;2.10;;;1.40;;
51925;SDS011;37952;51.938;15.480;2023-05-10T11:40:43;2.30;;;1.60;;
51925;SDS011;37952;51.938;15.480;2023-05-10T11:43:46;1.60;;;1.50;;
51925;SDS011;37952;51.938;15.480;2023-05-10T11:46:51;4.00;;;1.60;;
51925;SDS011;37952;51.938;15.480;2023-05-10T11:49:54;3.50;;;1.60;;
51925;SDS011;37952;51.938;15.480;2023-05-10T11:52:57;2.30;;;1.60;;
51925;SDS011;37952;51.938;15.480;2023-05-10T11:56:07;3.60;;;1.20;;
51925;SDS011;37952;51.938;15.480;2023-05-10T12:02:17;1.50;;;1.40;;
51925;SDS011;37952;51.938;15.480;2023-05-10T12:05:20;3.30;;;1.60;;
51925;SDS011;37952;51.938;15.480;2023-05-10T12:08:26;2.20;;;1.80;;
51925;SDS011;37952;51.938;15.480;2023-05-10T12:11:30;4.10;;;1.90;;
51925;SDS011;37952;51.938;15.480;2023-05-10T12:14:38;1.80;;;1.70;;
51925;SDS011;37952;51.938;15.480;2023-05-10T12:17:41;1.50;;;1.40;;
51925;SDS011;37952;51.938;15.480;2023-05-10T12:20:46;2.00;;;1.50;;
51925;SDS011;37952;51.938;15.480;2023-05-10T12:23:50;2.50;;;1.50;;
51925;SDS011;37952;51.938;15.480;2023-05-10T12:30:18;2.80;;;1.60;;
51925;SDS011;37952;51.938;15.480;2023-05-10T12:33:25;1.50;;;1.40;;
51925;SDS011;37952;51.938;15.480;2023-05-10T12:36:28;1.30;;;1.30;;
51925;SDS011;37952;51.938;15.480;2023-05-10T12:39:38;5.20;;;1.80;;
51925;SDS011;37952;51.938;15.480;2023-05-10T12:42:42;1.90;;;1.40;;
51925;SDS011;37952;51.938;15.480;2023-05-10T12:45:47;1.70;;;1.40;;
51925;SDS011;37952;51.938;15.480;2023-05-10T12:48:50;3.00;;;1.20;;
51925;SDS011;37952;51.938;15.480;2023-05-10T12:52:12;2.10;;;1.30;;
51925;SDS011;37952;51.938;15.480;2023-05-10T12:55:15;1.40;;;1.30;;
51925;SDS011;37952;51.938;15.480;2023-05-10T12:58:18;2.50;;;1.50;;
51925;SDS011;37952;51.938;15.480;2023-05-10T13:01:37;6.60;;;1.40;;
51925;SDS011;37952;51.938;15.480;2023-05-10T13:04:40;5.10;;;1.40;;
51925;SDS011;37952;51.938;15.480;2023-05-10T13:07:44;1.70;;;1.40;;
51925;SDS011;37952;51.938;15.480;2023-05-10T13:10:47;3.30;;;1.40;;
51925;SDS011;37952;51.938;15.480;2023-05-10T13:13:51;9.00;;;1.60;;
51925;SDS011;37952;51.938;15.480;2023-05-10T13:16:54;2.10;;;1.60;;
51925;SDS011;37952;51.938;15.480;2023-05-10T13:19:56;3.50;;;1.20;;
51925;SDS011;37952;51.938;15.480;2023-05-10T13:22:59;2.50;;;1.30;;
51925;SDS011;37952;51.938;15.480;2023-05-10T13:26:02;1.90;;;1.70;;
51925;SDS011;37952;51.938;15.480;2023-05-10T13:29:04;2.00;;;1.90;;
51925;SDS011;37952;51.938;15.480;2023-05-10T13:35:10;7.50;;;1.20;;
51925;SDS011;37952;51.938;15.480;2023-05-10T13:38:13;1.90;;;1.70;;
51925;SDS011;37952;51.938;15.480;2023-05-10T13:41:16;2.60;;;1.40;;
51925;SDS011;37952;51.938;15.480;2023-05-10T13:44:19;3.10;;;1.50;;
51925;SDS011;37952;51.938;15.480;2023-05-10T13:47:22;2.50;;;1.70;;
51925;SDS011;37952;51.938;15.480;2023-05-10T13:50:25;4.20;;;1.40;;
51925;SDS011;37952;51.938;15.480;2023-05-10T13:53:28;2.40;;;1.60;;
51925;SDS011;37952;51.938;15.480;2023-05-10T14:00:39;3.00;;;1.20;;
51925;SDS011;37952;51.938;15.480;2023-05-10T14:03:42;2.60;;;0.90;;
51925;SDS011;37952;51.938;15.480;2023-05-10T14:06:45;1.30;;;1.00;;
51925;SDS011;37952;51.938;15.480;2023-05-10T14:09:48;2.90;;;1.20;;
51925;SDS011;37952;51.938;15.480;2023-05-10T14:12:51;11.00;;;1.10;;
51925;SDS011;37952;51.938;15.480;2023-05-10T14:15:54;2.10;;;1.30;;
51925;SDS011;37952;51.938;15.480;2023-05-10T14:18:57;2.20;;;1.10;;
51925;SDS011;37952;51.938;15.480;2023-05-10T14:22:00;1.40;;;1.40;;
51925;SDS011;37952;51.938;15.480;2023-05-10T14:25:03;3.30;;;1.20;;
51925;SDS011;37952;51.938;15.480;2023-05-10T14:28:06;1.20;;;1.10;;
51925;SDS011;37952;51.938;15.480;2023-05-10T14:31:09;3.80;;;1.30;;
51925;SDS011;37952;51.938;15.480;2023-05-10T14:34:12;7.30;;;1.40;;
51925;SDS011;37952;51.938;15.480;2023-05-10T14:37:15;1.40;;;1.00;;
51925;SDS011;37952;51.938;15.480;2023-05-10T14:40:18;1.60;;;1.30;;
51925;SDS011;37952;51.938;15.480;2023-05-10T14:43:21;0.90;;;0.90;;
51925;SDS011;37952;51.938;15.480;2023-05-10T14:46:24;2.10;;;1.40;;
51925;SDS011;37952;51.938;15.480;2023-05-10T14:49:27;4.00;;;1.30;;
51925;SDS011;37952;51.938;15.480;2023-05-10T14:56:43;4.20;;;1.20;;
51925;SDS011;37952;51.938;15.480;2023-05-10T14:59:46;1.20;;;1.00;;
51925;SDS011;37952;51.938;15.480;2023-05-10T15:02:49;2.00;;;1.10;;
51925;SDS011;37952;51.938;15.480;2023-05-10T15:05:53;1.10;;;1.10;;
51925;SDS011;37952;51.938;15.480;2023-05-10T15:08:56;1.00;;;1.00;;
51925;SDS011;37952;51.938;15.480;2023-05-10T15:11:58;2.70;;;1.00;;
51925;SDS011;37952;51.938;15.480;2023-05-10T15:15:01;0.90;;;0.90;;
51925;SDS011;37952;51.938;15.480;2023-05-10T15:18:04;1.20;;;1.10;;
51925;SDS011;37952;51.938;15.480;2023-05-10T15:21:08;4.40;;;1.10;;
51925;SDS011;37952;51.938;15.480;2023-05-10T15:24:11;1.10;;;1.10;;
51925;SDS011;37952;51.938;15.480;2023-05-10T15:27:14;1.80;;;1.70;;
51925;SDS011;37952;51.938;15.480;2023-05-10T15:30:16;3.40;;;1.20;;
51925;SDS011;37952;51.938;15.480;2023-05-10T15:33:19;2.90;;;1.00;;
51925;SDS011;37952;51.938;15.480;2023-05-10T15:36:22;1.40;;;0.70;;
51925;SDS011;37952;51.938;15.480;2023-05-10T15:39:24;2.40;;;0.90;;
51925;SDS011;37952;51.938;15.480;2023-05-10T15:42:27;2.70;;;1.10;;
51925;SDS011;37952;51.938;15.480;2023-05-10T15:45:30;2.10;;;1.20;;
51925;SDS011;37952;51.938;15.480;2023-05-10T15:48:33;1.70;;;1.00;;
51925;SDS011;37952;51.938;15.480;2023-05-10T15:54:59;1.10;;;0.90;;
51925;SDS011;37952;51.938;15.480;2023-05-10T15:58:02;2.70;;;1.10;;
51925;SDS011;37952;51.938;15.480;2023-05-10T16:01:04;3.40;;;0.80;;
51925;SDS011;37952;51.938;15.480;2023-05-10T16:07:34;1.70;;;0.80;;
51925;SDS011;37952;51.938;15.480;2023-05-10T16:10:37;5.80;;;1.10;;
51925;SDS011;37952;51.938;15.480;2023-05-10T16:13:40;3.90;;;1.20;;
51925;SDS011;37952;51.938;15.480;2023-05-10T16:16:42;4.20;;;0.90;;
51925;SDS011;37952;51.938;15.480;2023-05-10T16:23:06;4.10;;;0.90;;
51925;SDS011;37952;51.938;15.480;2023-05-10T16:26:09;2.10;;;1.00;;
51925;SDS011;37952;51.938;15.480;2023-05-10T16:29:12;2.20;;;0.80;;
51925;SDS011;37952;51.938;15.480;2023-05-10T16:36:05;1.10;;;0.70;;
51925;SDS011;37952;51.938;15.480;2023-05-10T16:42:26;3.70;;;1.10;;
51925;SDS011;37952;51.938;15.480;2023-05-10T16:45:30;2.70;;;0.80;;
51925;SDS011;37952;51.938;15.480;2023-05-10T16:48:33;2.50;;;1.50;;
51925;SDS011;37952;51.938;15.480;2023-05-10T16:51:36;0.90;;;0.90;;
51925;SDS011;37952;51.938;15.480;2023-05-10T16:54:40;3.70;;;0.90;;
51925;SDS011;37952;51.938;15.480;2023-05-10T16:57:48;4.80;;;0.90;;
51925;SDS011;37952;51.938;15.480;2023-05-10T17:00:51;2.90;;;0.90;;
51925;SDS011;37952;51.938;15.480;2023-05-10T17:03:54;1.10;;;1.00;;
51925;SDS011;37952;51.938;15.480;2023-05-10T17:06:57;3.50;;;0.90;;
51925;SDS011;37952;51.938;15.480;2023-05-10T17:10:00;0.80;;;0.80;;
51925;SDS011;37952;51.938;15.480;2023-05-10T17:13:02;1.50;;;1.00;;
51925;SDS011;37952;51.938;15.480;2023-05-10T17:16:05;3.30;;;1.00;;
51925;SDS011;37952;51.938;15.480;2023-05-10T17:19:09;0.80;;;0.70;;
51925;SDS011;37952;51.938;15.480;2023-05-10T17:22:12;2.40;;;0.70;;
51925;SDS011;37952;51.938;15.480;2023-05-10T17:25:31;1.70;;;0.90;;
51925;SDS011;37952;51.938;15.480;2023-05-10T17:28:36;1.00;;;0.80;;
51925;SDS011;37952;51.938;15.480;2023-05-10T17:35:04;2.10;;;1.00;;
51925;SDS011;37952;51.938;15.480;2023-05-10T17:38:07;1.30;;;1.20;;
51925;SDS011;37952;51.938;15.480;2023-05-10T17:41:10;2.80;;;1.10;;
51925;SDS011;37952;51.938;15.480;2023-05-10T17:44:12;1.30;;;1.20;;
51925;SDS011;37952;51.938;15.480;2023-05-10T17:50:40;1.50;;;1.40;;
51925;SDS011;37952;51.938;15.480;2023-05-10T17:53:44;2.10;;;1.30;;
51925;SDS011;37952;51.938;15.480;2023-05-10T17:56:47;4.60;;;0.80;;
51925;SDS011;37952;51.938;15.480;2023-05-10T17:59:50;1.10;;;1.00;;
51925;SDS011;37952;51.938;15.480;2023-05-10T18:06:02;0.80;;;0.80;;
51925;SDS011;37952;51.938;15.480;2023-05-10T18:09:06;0.70;;;0.60;;
51925;SDS011;37952;51.938;15.480;2023-05-10T18:15:50;1.50;;;1.10;;
51925;SDS011;37952;51.938;15.480;2023-05-10T18:18:53;1.20;;;1.10;;
51925;SDS011;37952;51.938;15.480;2023-05-10T18:21:56;1.20;;;1.10;;
51925;SDS011;37952;51.938;15.480;2023-05-10T18:24:59;1.70;;;1.00;;
51925;SDS011;37952;51.938;15.480;2023-05-10T18:28:01;1.10;;;1.00;;
51925;SDS011;37952;51.938;15.480;2023-05-10T18:31:04;1.50;;;1.30;;
51925;SDS011;37952;51.938;15.480;2023-05-10T18:37:46;4.40;;;1.60;;
51925;SDS011;37952;51.938;15.480;2023-05-10T18:40:49;2.70;;;2.40;;
51925;SDS011;37952;51.938;15.480;2023-05-10T18:44:08;2.00;;;1.80;;
51925;SDS011;37952;51.938;15.480;2023-05-10T18:47:10;3.00;;;1.40;;
51925;SDS011;37952;51.938;15.480;2023-05-10T18:50:13;1.90;;;1.30;;
51925;SDS011;37952;51.938;15.480;2023-05-10T18:53:16;1.80;;;1.30;;
51925;SDS011;37952;51.938;15.480;2023-05-10T18:56:19;2.70;;;1.60;;
51925;SDS011;37952;51.938;15.480;2023-05-10T18:59:21;3.40;;;1.70;;
51925;SDS011;37952;51.938;15.480;2023-05-10T19:02:24;2.60;;;1.30;;
51925;SDS011;37952;51.938;15.480;2023-05-10T19:05:28;1.90;;;1.30;;
51925;SDS011;37952;51.938;15.480;2023-05-10T19:08:32;5.50;;;1.70;;
51925;SDS011;37952;51.938;15.480;2023-05-10T19:11:35;2.40;;;1.60;;
51925;SDS011;37952;51.938;15.480;2023-05-10T19:14:38;3.30;;;1.40;;
51925;SDS011;37952;51.938;15.480;2023-05-10T19:17:40;1.80;;;1.60;;
51925;SDS011;37952;51.938;15.480;2023-05-10T19:20:46;2.90;;;1.80;;
51925;SDS011;37952;51.938;15.480;2023-05-10T19:23:49;2.50;;;1.80;;
51925;SDS011;37952;51.938;15.480;2023-05-10T19:26:51;1.70;;;1.60;;
51925;SDS011;37952;51.938;15.480;2023-05-10T19:29:54;3.70;;;2.10;;
51925;SDS011;37952;51.938;15.480;2023-05-10T19:32:58;4.80;;;2.10;;
51925;SDS011;37952;51.938;15.480;2023-05-10T19:36:01;2.60;;;2.00;;